This is the latest recevied weather packets stored in our database for station/object PA3DZX-13. If no packets are shown the sender has not sent any weather packets the latest 10 day(s).
| Time | Temp. | Humidity | Pressure | Rain* | Wind** | Luminosity | Snow |
|---|---|---|---|---|---|---|---|
| 1777521980 | 3.89° C | 63% | 1030.5 hPa | 0 mm | - | - | - |
| 1777521079 | 2.78° C | 73% | 1030.5 hPa | 0 mm | - | - | - |
| 1777520179 | 2.78° C | 73% | 1030.5 hPa | 0 mm | - | - | - |
| 1777519278 | 3.89° C | 63% | 1030.3 hPa | 0 mm | - | - | - |
| 1777518378 | 5° C | 59% | 1030.2 hPa | 0 mm | - | - | - |
| 1777517477 | 5° C | 56% | 1030.2 hPa | 0 mm | - | - | - |
| 1777516577 | 5.56° C | 55% | 1030.2 hPa | 0 mm | - | - | - |
| 1777515676 | 5.56° C | 53% | 1030 hPa | 0 mm | - | - | - |
| 1777514777 | 6.67° C | 51% | 1030 hPa | 0 mm | - | - | - |
| 1777513876 | 6.67° C | 52% | 1029.9 hPa | 0 mm | - | - | - |
| 1777512976 | 6.67° C | 54% | 1029.9 hPa | 0 mm | - | - | - |
| 1777512075 | 6.67° C | 51% | 1029.7 hPa | 0 mm | - | - | - |
| 1777511175 | 7.78° C | 51% | 1029.7 hPa | 0 mm | - | - | - |
| 1777510274 | 7.78° C | 51% | 1029.6 hPa | 0 mm | - | - | - |
| 1777509374 | 7.78° C | 51% | 1029.6 hPa | 0 mm | - | - | - |
| 1777508473 | 7.78° C | 52% | 1029.7 hPa | 0 mm | - | - | - |
| 1777507573 | 5.56° C | 57% | 1029.6 hPa | 0 mm | - | - | - |
| 1777506673 | 5.56° C | 60% | 1029.7 hPa | 0 mm | - | - | - |
| 1777505773 | 5.56° C | 60% | 1029.7 hPa | 0 mm | - | - | - |
| 1777504873 | 5.56° C | 60% | 1029.7 hPa | 0 mm | - | - | - |
| 1777503973 | 5.56° C | 60% | 1029.6 hPa | 0 mm | - | - | - |
| 1777503071 | 6.67° C | 54% | 1029.4 hPa | 0 mm | - | - | - |
| 1777502171 | 7.78° C | 51% | 1029.4 hPa | 0 mm | - | - | - |
| 1777501271 | 8.89° C | 47% | 1029.2 hPa | 0 mm | - | - | - |
| 1777500372 | 8.89° C | 45% | 1029.1 hPa | 0 mm | - | - | - |
* Rain latest hour (hover to see other rain measurements)
** Current wind speed in m/s (hover to see current wind gust speed)